»·PEaware :: AAL1097 KSAN-KLAS

AAL1097 :: KSAN-KLAS

FLIGHT INFORMATION

Flight Status: Arrived
Operator:
American Airlines
More flights by this operator :: More flights under this callsign
Pilot: Adam A. (5112)
Aircraft: BOEING 767-300
(B763)
More flights by this aircraft type
Origin: KSAN San Diego Intl-Lindbergh
United States
Destination: KLAS McCarran Intl
United States
More flights between these airports :: More routes between these airports
Route: PEBLE6 SXC LAX DAG KEPEC3
File this flight plan on PilotEdge
Remarks:
Altitude:
(Current/Filed)
29,000ft
Speed:
(Current/Filed)
450kts
Departed: 16-Jan-16 06:10 PM
Arrived: 16-Jan-16 07:07 PM
Distance/Time
Traveled:
225nm/0:57
Distance/Time
To Go:
Arrived

Flight Plot

Page will automatically refresh every two minutes.


Map Options




Map Legend


Flown Route
Filed Route
Departure Airport
Arrival Airport
Navaid (VOR, NDB)
Fix

Horizontal Profiles

Position Reports

Time Latitude Longitude Heading Altitude Ground
Speed
16-Jan-16 17:17 32.734692 -117.203752 194 28ft 0kts
16-Jan-16 17:18 32.734692 -117.203752 194 28ft 0kts
16-Jan-16 17:19 32.734692 -117.203752 194 28ft 0kts
16-Jan-16 17:20 32.734692 -117.203752 194 28ft 0kts
16-Jan-16 17:21 32.734692 -117.203752 194 28ft 0kts
16-Jan-16 17:22 32.734692 -117.203752 194 28ft 0kts
16-Jan-16 17:23 32.734692 -117.203752 194 28ft 0kts
16-Jan-16 17:24 32.734692 -117.203752 194 28ft 0kts
16-Jan-16 17:25 32.734692 -117.203752 194 28ft 0kts
16-Jan-16 17:26 32.734692 -117.203752 194 28ft 0kts
16-Jan-16 17:27 32.734692 -117.203752 194 28ft 0kts
16-Jan-16 17:28 32.734692 -117.203752 194 28ft 0kts
16-Jan-16 17:29 32.734692 -117.203752 194 28ft 0kts
16-Jan-16 17:30 32.734692 -117.203752 194 28ft 0kts
16-Jan-16 17:31 32.734692 -117.203752 194 28ft 0kts
16-Jan-16 17:32 32.734692 -117.203752 194 28ft 0kts
16-Jan-16 17:33 32.734692 -117.203752 194 28ft 0kts
16-Jan-16 17:34 32.734692 -117.203752 194 28ft 0kts
16-Jan-16 17:35 32.734692 -117.203752 194 28ft 0kts
16-Jan-16 17:36 32.734692 -117.203752 194 28ft 0kts
16-Jan-16 17:37 32.734692 -117.203752 0 28ft 0kts
16-Jan-16 17:38 32.734692 -117.203752 194 28ft 0kts
16-Jan-16 17:39 32.734692 -117.203752 194 28ft 0kts
16-Jan-16 17:40 32.734692 -117.203752 194 28ft 0kts
16-Jan-16 17:41 32.734692 -117.203752 194 28ft 0kts
16-Jan-16 17:42 32.734692 -117.203752 194 28ft 0kts
16-Jan-16 17:43 32.734692 -117.203752 194 28ft 0kts
16-Jan-16 17:44 32.734692 -117.203752 194 28ft 0kts
16-Jan-16 17:45 32.734692 -117.203752 194 28ft 0kts
16-Jan-16 17:46 32.734692 -117.203752 194 28ft 0kts
16-Jan-16 17:47 32.734692 -117.203752 194 28ft 0kts
16-Jan-16 17:48 32.734692 -117.203752 194 28ft 0kts
16-Jan-16 17:49 32.734692 -117.203752 194 28ft 0kts
16-Jan-16 17:50 32.734692 -117.203752 194 28ft 0kts
16-Jan-16 17:51 32.734692 -117.203752 194 28ft 0kts
16-Jan-16 17:52 32.734692 -117.203752 194 28ft 0kts
16-Jan-16 17:53 32.734692 -117.203752 194 28ft 0kts
16-Jan-16 17:54 32.734679 -117.203756 194 28ft 0kts
16-Jan-16 17:55 32.735154 -117.203906 121 28ft 1kts
16-Jan-16 17:56 32.735173 -117.203936 103 28ft 2kts
16-Jan-16 17:57 32.735006 -117.202699 76 28ft 0kts
16-Jan-16 17:58 32.734787 -117.198996 106 28ft 13kts
16-Jan-16 17:59 32.733728 -117.194610 106 28ft 15kts
16-Jan-16 18:00 32.732471 -117.189458 105 28ft 17kts
16-Jan-16 18:01 32.731044 -117.183553 105 28ft 19kts
16-Jan-16 18:02 32.729580 -117.177532 106 28ft 10kts
16-Jan-16 18:03 32.729493 -117.177000 88 28ft 0kts
16-Jan-16 18:04 32.730055 -117.175684 329 28ft 6kts
16-Jan-16 18:05 32.736276 -117.200160 293 1053ft 168kts
16-Jan-16 18:06 32.767732 -117.251025 307 3068ft 234kts
16-Jan-16 18:07 32.808339 -117.316116 306 6930ft 253kts
16-Jan-16 18:08 32.850324 -117.384080 307 10531ft 276kts
16-Jan-16 18:09 32.906897 -117.461239 329 13262ft 333kts
16-Jan-16 18:10 32.984415 -117.521553 311 16882ft 345kts
16-Jan-16 18:11 33.042759 -117.613990 305 20185ft 358kts
16-Jan-16 18:12 33.100919 -117.712086 307 23039ft 370kts
16-Jan-16 18:13 33.161848 -117.805474 307 23314ft 378kts
16-Jan-16 18:14 33.203921 -117.903653 292 25673ft 383kts
16-Jan-16 18:15 33.243584 -118.022132 291 27977ft 393kts
16-Jan-16 18:16 33.282900 -118.140281 291 29192ft 386kts
16-Jan-16 18:17 33.322384 -118.259244 290 29200ft 386kts
16-Jan-16 18:18 33.371847 -118.372231 311 29202ft 392kts
16-Jan-16 18:19 33.454776 -118.422562 344 29231ft 440kts
16-Jan-16 18:20 33.579275 -118.425050 353 29196ft 456kts
16-Jan-16 18:21 33.705538 -118.427083 353 29188ft 456kts
16-Jan-16 18:22 33.830260 -118.429651 354 29180ft 457kts
16-Jan-16 18:23 33.949256 -118.383455 29 29174ft 488kts
16-Jan-16 18:24 34.035652 -118.255577 52 29169ft 508kts
16-Jan-16 18:25 34.113498 -118.113963 50 29159ft 506kts
16-Jan-16 18:26 34.192320 -117.973643 50 29173ft 506kts
16-Jan-16 18:27 34.270093 -117.835665 51 29185ft 505kts
16-Jan-16 18:28 34.348778 -117.695254 51 29180ft 507kts
16-Jan-16 18:29 34.427657 -117.553512 51 29181ft 509kts
16-Jan-16 18:30 34.506451 -117.411323 51 29181ft 509kts
16-Jan-16 18:31 34.584465 -117.269982 51 29187ft 509kts
16-Jan-16 18:32 34.662867 -117.127366 51 29188ft 509kts
16-Jan-16 18:33 34.741140 -116.984411 51 29180ft 508kts
16-Jan-16 18:34 34.818931 -116.842466 51 29161ft 508kts
16-Jan-16 18:35 34.895415 -116.701998 51 28754ft 460kts
16-Jan-16 18:36 34.964418 -116.577459 44 28600ft 430kts
16-Jan-16 18:37 35.047010 -116.472993 40 26319ft 422kts
16-Jan-16 18:38 35.123846 -116.376755 39 23968ft 363kts
16-Jan-16 18:39 35.192667 -116.290694 39 22003ft 381kts
16-Jan-16 18:40 35.265773 -116.198851 40 20781ft 373kts
16-Jan-16 18:41 35.337184 -116.108898 40 19517ft 363kts
16-Jan-16 18:42 35.406654 -116.021164 40 18265ft 355kts
16-Jan-16 18:43 35.474280 -115.935538 40 16890ft 346kts
16-Jan-16 18:44 35.539946 -115.852698 41 15572ft 337kts
16-Jan-16 18:45 35.603680 -115.771748 42 14345ft 326kts
16-Jan-16 18:46 35.663084 -115.695957 42 13204ft 296kts
16-Jan-16 18:47 35.723672 -115.618559 42 13030ft 323kts
16-Jan-16 18:48 35.800097 -115.574749 3 13105ft 315kts
16-Jan-16 18:49 35.886812 -115.568462 1 13009ft 312kts
16-Jan-16 18:50 35.969608 -115.544664 38 12622ft 319kts
16-Jan-16 18:51 36.004872 -115.457652 63 11764ft 264kts
16-Jan-16 18:52 36.029625 -115.372714 83 10987ft 269kts
16-Jan-16 18:53 36.024092 -115.280672 90 9911ft 266kts
16-Jan-16 18:54 36.017637 -115.190515 90 9012ft 257kts
16-Jan-16 18:55 36.011982 -115.107422 90 8227ft 237kts
16-Jan-16 18:56 36.006950 -115.026765 90 8050ft 236kts
16-Jan-16 18:57 36.023060 -114.966916 9 7532ft 197kts
16-Jan-16 18:58 36.075002 -114.962402 354 6008ft 180kts
16-Jan-16 18:59 36.078466 -115.018495 249 4880ft 195kts
16-Jan-16 19:00 36.073551 -115.075076 273 3387ft 152kts
16-Jan-16 19:01 36.073675 -115.124672 270 2197ft 130kts
16-Jan-16 19:02 36.074373 -115.145122 295 2192ft 25kts
16-Jan-16 19:03 36.077224 -115.146485 358 2192ft 0kts
16-Jan-16 19:04 36.079589 -115.146641 27 2192ft 4kts
16-Jan-16 19:05 36.079600 -115.146634 27 2192ft 0kts

Navigation Log

Ident Type
Flight plan parsing failed, navigation log unavailable